Norridge, Illinois
Current Conditions -  °F | °C
As of 1:51 AM on Monday 24 Nov 2014 (Local Time) from KORD Reporting Station
Light Rain Light Rain  
Wind Chill: 45°   Ceiling: 600
Heat Index: 49°   Visibility: 5mi
Dew Point: 48°   Wind: 9mph
Humidity: 97%   Direction: 250°WSW
Pressure: 29.07"   Gusts: NA
Location:  41.9716°N, 87.822°W
Report Text: KORD 240751Z 25008KT 5SM -RA BR OVC006 09/09 A2907 RMK AO2 SLP843 P0003 T00940089
Loading
Personal Weather Stations






























Interactive Weather Map New forecast layout! Learn more

10-Day Weather Forecast

Advertisements
Track Severe Weather on mobile